Time;durP1;ratioP1;P1;durP2;ratioP2;P2;SDS_P1;SDS_P2;PMS_P1;PMS_P2;Temp;Humidity;BMP_temperature;BMP_pressure;BME280_temperature;BME280_humidity;BME280_pressure;Samples;Min_cycle;Max_cycle;Signal;HPM_P1;HPM_P2
2021/01/21 00:01:25;;;;;;;2.83;1.00;;;9.80;99.90;;;;;;5096977;28;19904;-70
2021/01/21 00:03:51;;;;;;;1.52;0.90;;;9.50;99.90;;;;;;5096692;28;20087;-70
2021/01/21 00:06:16;;;;;;;;;;;9.50;99.90;;;;;;5097141;28;20028;-70
2021/01/21 00:08:42;;;;;;;6.47;1.55;;;9.50;99.90;;;;;;5096603;28;20385;-70
2021/01/21 00:11:08;;;;;;;;;;;9.30;99.90;;;;;;5097245;28;20377;-71
2021/01/21 00:13:34;;;;;;;0.88;0.80;;;9.10;99.90;;;;;;5096569;28;19904;-70
2021/01/21 00:16:00;;;;;;;;;;;9.30;99.90;;;;;;5097355;28;20025;-71
2021/01/21 00:18:26;;;;;;;3.13;1.30;;;9.20;99.90;;;;;;5096720;28;19915;-70
2021/01/21 00:20:51;;;;;;;;;;;9.30;99.90;;;;;;5096777;28;20028;-71
2021/01/21 00:23:17;;;;;;;3.03;0.80;;;9.10;99.90;;;;;;5096693;28;20001;-70
2021/01/21 00:25:43;;;;;;;;;;;9.00;99.90;;;;;;5096680;28;20426;-70
2021/01/21 00:28:09;;;;;;;2.20;0.82;;;9.00;99.90;;;;;;5095344;28;19904;-70
2021/01/21 00:30:34;;;;;;;2.47;0.95;;;8.90;99.90;;;;;;5095132;28;20488;-70
2021/01/21 00:33:01;;;;;;;;;;;8.80;99.90;;;;;;5097141;28;20035;-70
2021/01/21 00:35:27;;;;;;;2.07;0.90;;;8.60;99.90;;;;;;5096368;28;20385;-70
2021/01/21 00:37:52;;;;;;;;;;;8.60;99.90;;;;;;5096932;28;20704;-70
2021/01/21 00:40:18;;;;;;;4.80;1.23;;;8.50;99.90;;;;;;5096043;28;19950;-70
2021/01/21 00:42:44;;;;;;;;;;;8.30;99.90;;;;;;5096867;28;20020;-70
2021/01/21 00:45:10;;;;;;;3.33;1.20;;;8.20;99.90;;;;;;5096252;28;19904;-70
2021/01/21 00:47:36;;;;;;;4.00;1.20;;;8.00;99.90;;;;;;5096407;28;20044;-70
2021/01/21 00:50:02;;;;;;;;;;;8.10;99.90;;;;;;5096744;28;20511;-70
2021/01/21 00:52:28;;;;;;;7.25;1.50;;;8.00;99.90;;;;;;5096346;28;19904;-70
2021/01/21 00:54:53;;;;;;;;;;;7.90;99.90;;;;;;5096418;28;20531;-70
2021/01/21 00:57:19;;;;;;;4.78;1.38;;;8.00;99.90;;;;;;5096438;28;19911;-71
2021/01/21 00:59:45;;;;;;;;;;;7.70;99.90;;;;;;5098750;28;20024;-71
2021/01/21 01:02:10;;;;;;;5.68;1.30;;;7.70;99.90;;;;;;5100250;28;19904;-70
2021/01/21 01:04:36;;;;;;;;;;;7.70;99.90;;;;;;5098995;28;20107;-71
2021/01/21 01:07:03;;;;;;;7.22;1.23;;;7.70;99.90;;;;;;5100379;28;20336;-70
2021/01/21 01:09:28;;;;;;;9.35;1.20;;;7.70;99.90;;;;;;5099895;28;20047;-70
2021/01/21 01:11:54;;;;;;;;;;;7.70;99.90;;;;;;5100410;28;20024;-70
2021/01/21 01:14:20;;;;;;;3.13;1.80;;;7.70;99.90;;;;;;5099854;28;19978;-70
2021/01/21 01:16:46;;;;;;;;;;;7.60;99.90;;;;;;5100356;28;20016;-70
2021/01/21 01:19:11;;;;;;;2.65;1.58;;;7.70;99.90;;;;;;5099636;28;19904;-70
2021/01/21 01:21:37;;;;;;;;;;;7.70;99.90;;;;;;5100432;28;20016;-70
2021/01/21 01:24:03;;;;;;;13.55;3.05;;;7.70;99.90;;;;;;5099604;28;20291;-71
2021/01/21 01:26:29;;;;;;;9.90;4.57;;;7.70;99.90;;;;;;5098591;28;20020;-70
2021/01/21 01:28:55;;;;;;;;;;;7.70;99.90;;;;;;5099985;28;20065;-70
2021/01/21 01:31:21;;;;;;;9.20;5.05;;;7.70;99.90;;;;;;5099691;28;19904;-70
2021/01/21 01:33:46;;;;;;;;;;;7.60;99.90;;;;;;5099738;28;20028;-71
2021/01/21 01:36:12;;;;;;;10.13;3.65;;;7.70;99.90;;;;;;5099496;28;19961;-70
2021/01/21 01:38:38;;;;;;;;;;;7.40;99.90;;;;;;5099534;28;20039;-71
2021/01/21 01:41:04;;;;;;;6.07;2.53;;;7.60;99.90;;;;;;5099717;28;19915;-70
2021/01/21 01:43:30;;;;;;;9.48;3.58;;;7.50;99.90;;;;;;5099414;28;20031;-71
2021/01/21 01:45:56;;;;;;;;;;;7.40;99.90;;;;;;5099881;28;20047;-70
2021/01/21 01:48:21;;;;;;;8.68;2.88;;;7.30;99.90;;;;;;5098929;28;19920;-70
2021/01/21 01:50:47;;;;;;;;;;;7.40;99.90;;;;;;5098417;28;20020;-71
2021/01/21 01:53:13;;;;;;;7.70;3.65;;;7.20;99.90;;;;;;5099117;28;19955;-70
2021/01/21 01:55:40;;;;;;;;;;;7.20;99.90;;;;;;5099375;28;20020;-70
2021/01/21 01:58:09;;;;;;;10.98;4.80;;;7.00;99.90;;;;;;5097507;28;21053;-70
2021/01/21 02:00:36;;;;;;;10.80;5.07;;;7.10;99.90;;;;;;5099096;28;20052;-70
2021/01/21 02:03:02;;;;;;;12.65;5.25;;;7.10;99.90;;;;;;5098876;28;20099;-71
2021/01/21 02:05:28;;;;;;;13.70;5.57;;;7.00;99.90;;;;;;5099144;28;20062;-70
2021/01/21 02:07:54;;;;;;;;;;;6.90;99.90;;;;;;5099323;28;20031;-70
2021/01/21 02:10:21;;;;;;;12.80;3.97;;;7.00;99.90;;;;;;5097940;28;19904;-70
2021/01/21 02:13:08;;;;;;;14.15;5.53;;;7.00;99.90;;;;;;5098699;28;20039;-70
2021/01/21 02:15:52;;;;;;;16.70;4.47;;;7.00;99.90;;;;;;5098810;28;20031;-70
2021/01/21 02:18:36;;;;;;;11.27;3.55;;;6.80;99.90;;;;;;5097277;28;20082;-70
2021/01/21 02:21:26;;;;;;;7.72;2.65;;;6.80;99.90;;;;;;5098868;28;20134;-70
2021/01/21 02:24:13;;;;;;;14.93;2.75;;;6.60;99.90;;;;;;5098348;28;20048;-70
2021/01/21 02:26:53;;;;;;;11.23;2.60;;;6.80;99.90;;;;;;5098440;28;20024;-70
2021/01/21 02:29:22;;;;;;;8.05;2.72;;;6.80;99.90;;;;;;5098620;28;20112;-70
2021/01/21 02:32:06;;;;;;;10.82;2.65;;;6.60;99.90;;;;;;5098354;28;20069;-70
2021/01/21 02:35:02;;;;;;;14.63;2.63;;;6.40;99.90;;;;;;5097091;28;20105;-70
2021/01/21 02:37:29;;;;;;;12.15;2.00;;;6.20;99.90;;;;;;5098465;28;20498;-70
2021/01/21 02:40:00;;;;;;;6.82;2.47;;;6.30;99.90;;;;;;5097894;28;20036;-70
2021/01/21 02:42:28;;;;;;;4.90;1.80;;;6.20;99.90;;;;;;5098222;28;20023;-70
2021/01/21 02:44:54;;;;;;;13.88;2.45;;;6.10;99.90;;;;;;5098133;28;20032;-70
2021/01/21 02:47:21;;;;;;;;;;;6.10;99.90;;;;;;5098405;28;20040;-70
2021/01/21 02:49:51;;;;;;;12.05;2.50;;;6.20;99.90;;;;;;5097930;28;19904;-70
2021/01/21 02:52:33;;;;;;;11.60;2.28;;;6.20;99.90;;;;;;5098003;28;20440;-70
2021/01/21 02:55:12;;;;;;;10.63;2.20;;;6.30;99.90;;;;;;5098133;28;20035;-70
2021/01/21 02:57:59;;;;;;;8.00;2.25;;;6.20;99.90;;;;;;5097843;28;20058;-70
2021/01/21 03:00:26;;;;;;;9.85;2.30;;;6.30;99.90;;;;;;5097984;28;20016;-70
2021/01/21 03:02:57;;;;;;;9.60;3.28;;;6.20;99.90;;;;;;5097614;28;20099;-70
2021/01/21 03:05:24;;;;;;;9.23;2.28;;;6.20;99.90;;;;;;5097824;28;20520;-70
2021/01/21 03:07:51;;;;;;;10.40;2.47;;;6.20;99.90;;;;;;5097605;28;20499;-70
2021/01/21 03:10:19;;;;;;;11.50;2.80;;;6.00;99.90;;;;;;5097433;28;20066;-70
2021/01/21 03:12:52;;;;;;;11.25;2.33;;;6.10;99.90;;;;;;5097437;28;20028;-70
2021/01/21 03:15:18;;;;;;;16.27;4.47;;;6.20;99.90;;;;;;5097658;28;20024;-70
2021/01/21 03:17:44;;;;;;;6.18;2.90;;;6.10;99.90;;;;;;5097724;28;20048;-70
2021/01/21 03:20:10;;;;;;;;;;;6.20;99.90;;;;;;5097700;28;20031;-70
2021/01/21 03:22:36;;;;;;;16.73;5.57;;;6.30;99.90;;;;;;5097398;28;19957;-70
2021/01/21 03:25:02;;;;;;;;;;;6.40;99.90;;;;;;5096415;28;20023;-70
2021/01/21 03:27:28;;;;;;;10.60;3.47;;;6.30;99.90;;;;;;5097876;28;19914;-70
2021/01/21 03:29:54;;;;;;;;;;;6.40;99.90;;;;;;5097789;28;20499;-70
2021/01/21 03:32:19;;;;;;;10.98;3.38;;;6.30;99.90;;;;;;5097468;28;19911;-70
2021/01/21 03:34:46;;;;;;;;;;;6.00;99.90;;;;;;5097493;28;20027;-70
2021/01/21 03:37:12;;;;;;;6.38;2.53;;;5.90;99.90;;;;;;5097461;28;19904;-70
2021/01/21 03:39:37;;;;;;;;;;;5.80;99.90;;;;;;5097307;28;20451;-70
2021/01/21 03:42:03;;;;;;;10.27;2.10;;;5.80;99.90;;;;;;5097288;28;19904;-70
2021/01/21 03:44:29;;;;;;;;;;;5.70;99.90;;;;;;5097699;28;20027;-70
2021/01/21 03:46:55;;;;;;;10.63;2.50;;;5.50;99.90;;;;;;5096803;28;19961;-70
2021/01/21 03:49:20;;;;;;;;;;;5.40;99.90;;;;;;5097412;28;20082;-70
2021/01/21 03:51:46;;;;;;;2.05;1.55;;;5.50;99.90;;;;;;5096947;28;19908;-70
2021/01/21 03:54:13;;;;;;;6.63;2.13;;;5.50;99.90;;;;;;5096841;28;20052;-70
2021/01/21 03:56:39;;;;;;;;;;;5.10;99.90;;;;;;5097288;28;20024;-70
2021/01/21 03:59:04;;;;;;;11.73;1.90;;;5.90;99.90;;;;;;5096869;28;19910;-70
2021/01/21 04:01:30;;;;;;;;;;;5.40;99.90;;;;;;5097385;28;20024;-70
2021/01/21 04:03:56;;;;;;;10.73;2.45;;;5.30;99.90;;;;;;5096643;28;20326;-70
2021/01/21 04:06:21;;;;;;;;;;;5.40;99.90;;;;;;5097344;28;20016;-70
2021/01/21 04:08:47;;;;;;;8.85;2.55;;;5.60;99.90;;;;;;5096577;28;19915;-70
2021/01/21 04:11:13;;;;;;;;;;;5.60;99.90;;;;;;5095988;28;20032;-70
2021/01/21 04:13:39;;;;;;;13.25;3.80;;;5.70;99.90;;;;;;5096609;28;19904;-70
2021/01/21 04:16:05;;;;;;;;;;;6.00;99.90;;;;;;5097232;28;20416;-70
2021/01/21 04:18:30;;;;;;;8.25;2.88;;;6.10;99.90;;;;;;5096782;28;19914;-70
2021/01/21 04:20:56;;;;;;;;;;;6.20;99.90;;;;;;5097078;28;20074;-70
2021/01/21 04:23:22;;;;;;;6.63;2.72;;;6.20;99.90;;;;;;5096625;28;19904;-70
2021/01/21 04:25:47;;;;;;;;;;;6.10;99.90;;;;;;5096925;28;20506;-70
2021/01/21 04:28:13;;;;;;;12.75;2.47;;;6.00;99.90;;;;;;5096693;28;19919;-70
2021/01/21 04:30:39;;;;;;;;;;;5.90;99.90;;;;;;5097138;28;20039;-70
2021/01/21 04:33:05;;;;;;;11.15;2.80;;;5.90;99.90;;;;;;5096587;28;19904;-70
2021/01/21 04:35:31;;;;;;;;;;;5.80;99.90;;;;;;5100827;28;20024;-70
2021/01/21 04:37:58;;;;;;;12.90;2.33;;;6.00;99.90;;;;;;5100760;28;20367;-70
2021/01/21 04:40:26;;;;;;;14.88;2.50;;;5.60;99.90;;;;;;5100365;28;20041;-70
2021/01/21 04:42:53;;;;;;;9.52;2.40;;;5.40;99.90;;;;;;5100492;28;20024;-70
2021/01/21 04:45:19;;;;;;;17.20;3.35;;;5.90;99.90;;;;;;5100497;28;20406;-70
2021/01/21 04:47:45;;;;;;;;;;;5.70;99.90;;;;;;5099457;28;20076;-70
2021/01/21 04:50:12;;;;;;;7.35;2.50;;;6.00;99.90;;;;;;5100443;28;19934;-70
2021/01/21 04:52:46;;;;;;;12.88;1.73;;;6.40;99.90;;;;;;5100345;28;20028;-70
2021/01/21 04:55:16;;;;;;;4.50;1.70;;;6.40;99.90;;;;;;5100129;28;20035;-70
2021/01/21 04:58:05;;;;;;;7.18;1.73;;;6.60;99.90;;;;;;5100222;28;20028;-70
2021/01/21 05:00:32;;;;;;;8.35;2.10;;;6.50;99.90;;;;;;5100505;28;20020;-70
2021/01/21 05:03:00;;;;;;;8.35;1.83;;;6.40;99.90;;;;;;5099061;28;20031;-70
2021/01/21 05:05:27;;;;;;;14.60;2.25;;;6.00;99.90;;;;;;5100005;28;20016;-70
2021/01/21 05:07:53;;;;;;;11.07;1.67;;;6.30;99.90;;;;;;5100140;28;20016;-70
2021/01/21 05:10:20;;;;;;;9.88;2.20;;;6.50;99.90;;;;;;5099671;28;20391;-70
2021/01/21 05:12:46;;;;;;;11.18;2.28;;;6.70;99.90;;;;;;5100143;28;20060;-70
2021/01/21 05:15:12;;;;;;;;;;;6.80;99.90;;;;;;5100273;28;20028;-70
2021/01/21 05:17:38;;;;;;;7.40;1.90;;;6.40;99.90;;;;;;5100225;28;19908;-70
2021/01/21 05:20:04;;;;;;;;;;;6.60;99.90;;;;;;5100174;28;20028;-70
2021/01/21 05:22:30;;;;;;;7.18;1.85;;;6.50;99.90;;;;;;5099792;28;19970;-70
2021/01/21 05:24:55;;;;;;;;;;;6.40;99.90;;;;;;5098690;28;20042;-70
2021/01/21 05:27:22;;;;;;;9.80;2.88;;;6.20;99.90;;;;;;5099765;28;19904;-70
2021/01/21 05:29:49;;;;;;;9.82;2.50;;;6.20;99.90;;;;;;5098471;28;20111;-70
2021/01/21 05:32:16;;;;;;;10.20;2.55;;;6.10;99.90;;;;;;5099607;28;20016;-70
2021/01/21 05:34:46;;;;;;;11.88;1.85;;;6.00;99.90;;;;;;5099520;28;20024;-70
2021/01/21 05:37:14;;;;;;;4.95;1.70;;;6.00;99.90;;;;;;5099521;28;20032;-70
2021/01/21 05:39:42;;;;;;;10.95;3.17;;;5.90;99.90;;;;;;5099198;28;20063;-70
2021/01/21 05:42:09;;;;;;;6.88;2.05;;;5.80;99.90;;;;;;5099437;28;20016;-70
2021/01/21 05:44:36;;;;;;;6.38;2.10;;;5.80;99.90;;;;;;5099329;28;20495;-70
2021/01/21 05:47:09;;;;;;;5.45;1.73;;;5.90;99.90;;;;;;5098127;28;20044;-70
2021/01/21 05:49:36;;;;;;;3.95;1.70;;;5.70;99.90;;;;;;5097705;28;20028;-70
2021/01/21 05:52:02;;;;;;;10.75;1.98;;;5.70;99.90;;;;;;5098119;28;20112;-70
2021/01/21 05:54:29;;;;;;;8.68;1.95;;;5.70;99.90;;;;;;5097951;28;20112;-70
2021/01/21 05:56:58;;;;;;;10.57;2.17;;;6.10;99.90;;;;;;5099210;28;20082;-70
2021/01/21 05:59:26;;;;;;;9.38;2.30;;;5.70;99.90;;;;;;5099012;28;20103;-70
2021/01/21 06:01:53;;;;;;;9.38;1.80;;;5.80;99.90;;;;;;5099212;28;20380;-70
2021/01/21 06:04:24;;;;;;;14.45;2.55;;;5.80;99.90;;;;;;5098710;28;20447;-70
2021/01/21 06:06:51;;;;;;;6.32;2.03;;;5.90;99.90;;;;;;5099063;28;20024;-70
2021/01/21 06:09:25;;;;;;;14.35;2.30;;;6.00;99.90;;;;;;5098629;28;20111;-67
2021/01/21 06:11:52;;;;;;;6.68;2.47;;;6.00;99.90;;;;;;5098879;28;20024;-72
2021/01/21 06:14:23;;;;;;;9.15;2.20;;;6.00;99.90;;;;;;5097449;28;20476;-72
2021/01/21 06:16:50;;;;;;;11.80;2.42;;;6.00;99.90;;;;;;5098924;28;20103;-72
2021/01/21 06:19:15;;;;;;;6.38;2.05;;;6.00;99.90;;;;;;5098493;28;20066;-72
2021/01/21 06:21:43;;;;;;;;;;;6.00;99.90;;;;;;5097817;28;20028;-72
2021/01/21 06:24:11;;;;;;;10.07;2.50;;;5.80;99.90;;;;;;5098456;28;19908;-71
2021/01/21 06:26:46;;;;;;;6.78;2.75;;;5.90;99.90;;;;;;5098564;28;20020;-71
2021/01/21 06:29:19;;;;;;;13.13;2.67;;;6.10;99.90;;;;;;5098692;28;20028;-72
2021/01/21 06:31:49;;;;;;;9.63;2.17;;;5.90;99.90;;;;;;5098407;28;20288;-71
2021/01/21 06:34:24;;;;;;;6.85;1.75;;;5.90;99.90;;;;;;5098418;28;20031;-71
2021/01/21 06:37:02;;;;;;;10.45;2.40;;;5.60;99.90;;;;;;5097047;28;20032;-72
2021/01/21 06:40:00;;;;;;;14.13;2.20;;;5.70;99.90;;;;;;5098271;28;20125;-72
2021/01/21 06:42:27;;;;;;;;;;;6.00;99.90;;;;;;5097294;28;20031;-72
2021/01/21 06:44:56;;;;;;;10.13;2.40;;;5.90;99.90;;;;;;5098368;28;19908;-71
2021/01/21 06:47:22;;;;;;;8.43;2.50;;;5.80;99.90;;;;;;5098071;28;20131;-72
2021/01/21 06:49:49;;;;;;;;;;;5.70;99.90;;;;;;5098373;28;20063;-71
2021/01/21 06:52:15;;;;;;;;;;;5.80;99.90;;;;;;5098662;28;19904;-72
2021/01/21 06:54:42;;;;;;;6.43;1.88;;;5.90;99.90;;;;;;5097723;28;19950;-72
2021/01/21 06:57:34;;;;;;;6.85;2.10;;;5.80;99.90;;;;;;5097821;28;20049;-72
2021/01/21 07:00:00;;;;;;;11.23;3.97;;;5.80;99.90;;;;;;5098068;28;20065;-72
2021/01/21 07:02:53;;;;;;;10.60;2.65;;;5.70;99.90;;;;;;5097779;28;20028;-72
2021/01/21 07:05:21;;;;;;;12.00;2.20;;;5.70;99.90;;;;;;5097235;28;20039;-72
2021/01/21 07:10:44;;;;;;;6.90;2.08;;;6.00;99.90;;;;;;5097413;28;20042;-72
2021/01/21 07:13:16;;;;;;;7.32;2.33;;;5.50;99.90;;;;;;5097625;28;20024;-72
2021/01/21 07:15:57;;;;;;;12.32;2.40;;;5.70;99.90;;;;;;5097649;28;20032;-72
2021/01/21 07:18:30;;;;;;;11.82;2.60;;;5.50;99.90;;;;;;5097597;28;20506;-71
2021/01/21 07:21:13;;;;;;;7.15;2.40;;;5.50;99.90;;;;;;5097574;28;20023;-71
2021/01/21 07:23:52;;;;;;;8.68;2.13;;;5.70;99.90;;;;;;5097096;28;20042;-71
2021/01/21 07:26:41;;;;;;;13.70;3.00;;;5.60;99.90;;;;;;5097622;28;20020;-71
2021/01/21 07:29:11;;;;;;;9.35;2.13;;;5.50;99.90;;;;;;5097587;28;20027;-72
2021/01/21 07:31:52;;;;;;;14.40;2.72;;;5.60;99.90;;;;;;5097321;28;20101;-71
2021/01/21 07:34:40;;;;;;;13.90;2.63;;;5.70;99.90;;;;;;5097243;28;20038;-71
2021/01/21 07:37:22;;;;;;;13.20;2.30;;;5.50;99.90;;;;;;5097526;28;20396;-71
2021/01/21 07:40:06;;;;;;;22.67;2.72;;;5.10;99.90;;;;;;5096886;28;20035;-72
2021/01/21 07:42:37;;;;;;;14.38;3.35;;;5.60;99.90;;;;;;5097408;28;20008;-71
2021/01/21 07:45:05;;;;;;;8.98;2.50;;;5.80;99.90;;;;;;5097171;28;20031;-72
2021/01/21 07:47:35;;;;;;;11.43;2.80;;;5.70;99.90;;;;;;5097241;28;20053;-72
2021/01/21 07:50:17;;;;;;;9.07;2.08;;;5.70;99.90;;;;;;5097276;28;20020;-72
2021/01/21 07:52:45;;;;;;;7.75;3.10;;;5.70;99.90;;;;;;5096868;28;20030;-72
2021/01/21 07:55:11;;;;;;;6.00;2.22;;;5.90;99.90;;;;;;5096901;28;20403;-72
2021/01/21 07:57:37;;;;;;;12.82;2.25;;;5.80;99.90;;;;;;5096828;28;20028;-72
2021/01/21 08:00:11;;;;;;;19.02;2.42;;;5.90;99.90;;;;;;5095553;28;20032;-72
2021/01/21 08:02:49;;;;;;;12.15;2.67;;;5.80;99.90;;;;;;5096895;28;20441;-72
2021/01/21 08:05:19;;;;;;;7.65;3.25;;;5.90;99.90;;;;;;5096657;28;20421;-72
2021/01/21 08:07:56;;;;;;;10.43;2.60;;;6.10;99.90;;;;;;5096666;28;20020;-71
2021/01/21 08:10:26;;;;;;;12.63;3.17;;;6.10;99.90;;;;;;5096109;28;20495;-71
2021/01/21 08:13:02;;;;;;;11.82;3.13;;;6.10;99.90;;;;;;5096700;28;20265;-72
2021/01/21 08:15:29;;;;;;;10.50;2.75;;;6.20;99.90;;;;;;5096841;28;20048;-72
2021/01/21 08:17:57;;;;;;;10.63;2.80;;;6.20;99.90;;;;;;5096952;28;20106;-71
2021/01/21 08:20:25;;;;;;;12.98;2.47;;;6.30;99.90;;;;;;5096435;28;20024;-72
2021/01/21 08:23:04;;;;;;;16.88;2.40;;;6.60;99.90;;;;;;5096631;28;20427;-71
2021/01/21 08:25:38;;;;;;;13.38;2.92;;;6.60;99.90;;;;;;5096652;28;20043;-71
2021/01/21 08:28:04;;;;;;;12.32;3.13;;;6.60;99.90;;;;;;5096641;28;20016;-71
2021/01/21 08:30:30;;;;;;;;;;;6.60;99.90;;;;;;5097160;28;20028;-71
2021/01/21 08:33:08;;;;;;;6.33;2.17;;;6.70;99.90;;;;;;5096645;28;19904;-72
2021/01/21 08:35:43;;;;;;;22.52;4.00;;;6.80;99.90;;;;;;5096689;28;20106;-71
2021/01/21 08:38:12;;;;;;;15.63;2.83;;;6.90;99.90;;;;;;5096431;28;20020;-72
2021/01/21 08:40:39;;;;;;;7.10;2.20;;;7.00;99.90;;;;;;5096669;28;20023;-71
2021/01/21 08:43:07;;;;;;;11.30;2.92;;;6.90;99.90;;;;;;5096419;28;20104;-71
2021/01/21 08:45:33;;;;;;;9.60;2.58;;;7.10;99.90;;;;;;5096493;28;20024;-71
2021/01/21 08:47:59;;;;;;;10.10;3.25;;;7.20;99.90;;;;;;5096543;28;20052;-71
2021/01/21 08:50:38;;;;;;;12.40;2.70;;;7.30;99.90;;;;;;5096417;28;20032;-71
2021/01/21 08:53:10;;;;;;;18.25;3.35;;;7.30;99.90;;;;;;5096339;28;20508;-71
2021/01/21 08:55:42;;;;;;;10.82;2.67;;;7.40;99.90;;;;;;5096645;28;20029;-71
2021/01/21 08:58:09;;;;;;;6.95;2.85;;;7.40;99.90;;;;;;5096190;28;20020;-71
2021/01/21 09:00:36;;;;;;;11.88;3.33;;;7.40;99.90;;;;;;5096301;28;20028;-71
2021/01/21 09:03:02;;;;;;;11.93;2.38;;;7.60;99.90;;;;;;5096276;28;20024;-72
2021/01/21 09:05:28;;;;;;;13.23;2.65;;;7.80;99.90;;;;;;5096347;28;20056;-71
2021/01/21 09:08:08;;;;;;;9.68;2.50;;;7.70;99.90;;;;;;5096371;28;20024;-71
2021/01/21 09:10:43;;;;;;;16.35;3.85;;;7.80;99.90;;;;;;5095853;28;20028;-71
2021/01/21 09:13:10;;;;;;;11.48;2.28;;;7.90;99.90;;;;;;5096218;28;20448;-71
2021/01/21 09:15:55;;;;;;;10.63;2.10;;;7.90;99.90;;;;;;5096090;28;20127;-72
2021/01/21 09:18:44;;;;;;;13.18;5.22;;;8.00;99.90;;;;;;5096115;28;20472;-71
2021/01/21 09:21:19;;;;;;;6.25;2.33;;;8.10;99.90;;;;;;5099035;28;20031;-71
2021/01/21 09:24:08;;;;;;;8.10;1.90;;;8.10;99.90;;;;;;5099574;28;20020;-71
2021/01/21 09:26:34;;;;;;;15.55;2.72;;;8.20;99.90;;;;;;5099912;28;20020;-71
2021/01/21 09:28:59;;;;;;;;;;;8.10;99.90;;;;;;5100287;28;20024;-71
2021/01/21 09:31:30;;;;;;;11.63;2.28;;;8.20;99.90;;;;;;5099756;28;20292;-71
2021/01/21 09:33:56;;;;;;;19.92;4.25;;;8.10;99.90;;;;;;5099614;28;20024;-71
2021/01/21 09:36:26;;;;;;;;;;;8.20;99.90;;;;;;5099924;28;20028;-71
2021/01/21 09:38:52;;;;;;;12.60;2.42;;;8.40;99.90;;;;;;5099520;28;20310;-71
2021/01/21 09:41:17;;;;;;;;;;;8.30;99.90;;;;;;5098539;28;20498;-71
2021/01/21 09:43:43;;;;;;;8.75;2.30;;;8.40;99.90;;;;;;5099496;28;20287;-71
2021/01/21 09:46:09;;;;;;;;;;;8.40;99.90;;;;;;5099823;28;20423;-71
2021/01/21 09:48:35;;;;;;;24.25;4.53;;;8.50;99.90;;;;;;5099088;28;19938;-71
2021/01/21 09:51:01;;;;;;;;;;;8.40;99.90;;;;;;5099881;28;20452;-72
2021/01/21 09:53:26;;;;;;;10.40;2.72;;;8.40;99.90;;;;;;5099123;28;19904;-71
2021/01/21 09:55:55;;;;;;;;;;;8.40;99.90;;;;;;5098278;28;20024;-72
2021/01/21 09:58:24;;;;;;;8.40;2.58;;;8.50;99.90;;;;;;5099289;28;19904;-72
2021/01/21 10:00:51;;;;;;;10.15;2.40;;;8.40;99.90;;;;;;5099058;28;20032;-71
2021/01/21 10:03:18;;;;;;;16.88;3.78;;;8.40;99.90;;;;;;5099081;28;20027;-72
2021/01/21 10:05:44;;;;;;;14.85;2.60;;;8.30;99.90;;;;;;5098897;28;20020;-72
2021/01/21 10:08:10;;;;;;;23.17;4.05;;;8.30;99.90;;;;;;5098934;28;20023;-72
2021/01/21 10:10:36;;;;;;;;;;;8.40;99.90;;;;;;5099268;28;20024;-71
2021/01/21 10:13:01;;;;;;;9.85;2.22;;;8.10;99.90;;;;;;5099058;28;19912;-71
2021/01/21 10:15:27;;;;;;;;;;;8.40;99.90;;;;;;5097974;28;20048;-71
2021/01/21 10:17:53;;;;;;;11.80;3.55;;;8.30;99.90;;;;;;5098949;28;19910;-71
2021/01/21 10:20:19;;;;;;;;;;;8.50;99.90;;;;;;5098938;28;20096;-72
2021/01/21 10:22:45;;;;;;;12.88;2.78;;;8.40;99.90;;;;;;5098737;28;19904;-72
2021/01/21 10:25:10;;;;;;;;;;;8.50;99.90;;;;;;5098797;28;20506;-72
2021/01/21 10:27:36;;;;;;;10.20;2.28;;;8.60;99.90;;;;;;5098799;28;20033;-71
2021/01/21 10:30:04;;;;;;;;;;;8.70;99.90;;;;;;5098869;28;20138;-72
2021/01/21 10:32:31;;;;;;;18.45;3.08;;;8.80;99.90;;;;;;5098167;28;19904;-71
2021/01/21 10:34:56;;;;;;;24.15;3.42;;;8.90;99.90;;;;;;5098753;28;20056;-72
2021/01/21 10:37:23;;;;;;;;;;;8.80;99.90;;;;;;5099053;28;20089;-72
2021/01/21 10:39:48;;;;;;;15.07;4.30;;;9.00;99.90;;;;;;5097947;28;19915;-72
2021/01/21 10:42:14;;;;;;;;;;;9.00;99.90;;;;;;5098859;28;20021;-72
2021/01/21 10:44:40;;;;;;;13.55;4.05;;;9.00;99.90;;;;;;5096904;28;19916;-72
2021/01/21 10:47:06;;;;;;;;;;;9.20;99.90;;;;;;5098513;28;20092;-72
2021/01/21 10:49:32;;;;;;;13.80;3.17;;;9.20;99.90;;;;;;5098142;28;19911;-72
2021/01/21 10:51:59;;;;;;;;;;;9.10;99.90;;;;;;5098972;28;20012;-72
2021/01/21 10:54:25;;;;;;;8.57;1.92;;;9.10;99.90;;;;;;5097630;28;19939;-72
2021/01/21 10:56:54;;;;;;;;;;;9.30;99.90;;;;;;5098590;28;20380;-72
2021/01/21 10:59:20;;;;;;;15.60;2.53;;;9.20;99.90;;;;;;5097864;28;19904;-72
2021/01/21 11:01:46;;;;;;;;;;;9.10;99.90;;;;;;5098474;28;20019;-71
2021/01/21 11:04:12;;;;;;;6.10;1.95;;;9.20;99.90;;;;;;5097699;28;19910;-72
2021/01/21 11:06:38;;;;;;;11.65;2.65;;;9.70;99.90;;;;;;5097884;28;20024;-72
2021/01/21 11:09:03;;;;;;;;;;;8.90;99.90;;;;;;5097991;28;20016;-72
2021/01/21 11:11:29;;;;;;;7.53;1.60;;;9.20;99.90;;;;;;5097913;28;19908;-72
2021/01/21 11:13:55;;;;;;;;;;;9.10;99.90;;;;;;5096817;28;20054;-72
2021/01/21 11:16:21;;;;;;;8.80;1.70;;;9.10;99.90;;;;;;5097751;28;19910;-72
2021/01/21 11:18:46;;;;;;;;;;;9.00;99.90;;;;;;5097892;28;20103;-72
2021/01/21 11:21:12;;;;;;;6.80;1.63;;;9.00;99.90;;;;;;5097538;28;19908;-72
2021/01/21 11:23:38;;;;;;;;;;;8.90;99.90;;;;;;5097641;28;20020;-72
2021/01/21 11:26:04;;;;;;;6.43;2.40;;;8.90;99.90;;;;;;5097608;28;19904;-72
2021/01/21 11:28:30;;;;;;;5.72;1.40;;;8.80;99.90;;;;;;5097688;28;20132;-73
2021/01/21 11:30:55;;;;;;;2.22;1.33;;;8.70;99.90;;;;;;5096217;28;20430;-72
2021/01/21 11:33:21;;;;;;;;;;;8.80;99.90;;;;;;5097527;28;20024;-72
2021/01/21 11:35:47;;;;;;;6.85;1.35;;;8.80;99.90;;;;;;5097446;28;20078;-72
2021/01/21 11:38:16;;;;;;;5.18;1.58;;;8.80;99.90;;;;;;5097082;28;20035;-73
2021/01/21 11:40:44;;;;;;;8.35;1.67;;;8.90;99.90;;;;;;5097307;28;20056;-72
2021/01/21 11:43:10;;;;;;;6.40;2.42;;;8.80;99.90;;;;;;5096419;28;20028;-73
2021/01/21 11:45:36;;;;;;;3.83;1.38;;;8.70;99.90;;;;;;5095766;28;20017;-73
2021/01/21 11:48:04;;;;;;;3.53;1.13;;;8.90;99.90;;;;;;5096970;28;20051;-73
2021/01/21 11:50:30;;;;;;;5.32;1.30;;;9.00;99.90;;;;;;5097193;28;20024;-73
2021/01/21 11:52:56;;;;;;;;;;;9.00;99.90;;;;;;5097396;28;20400;-73
2021/01/21 11:55:23;;;;;;;1.83;1.00;;;9.10;99.90;;;;;;5096783;28;19908;-73
2021/01/21 11:57:49;;;;;;;2.60;0.85;;;9.20;99.90;;;;;;5096883;28;20076;-73
2021/01/21 12:00:15;;;;;;;;;;;9.20;99.90;;;;;;5097411;28;20679;-73
2021/01/21 12:02:41;;;;;;;4.95;1.00;;;9.30;99.90;;;;;;5096851;28;19905;-74
2021/01/21 12:05:07;;;;;;;;;;;9.30;99.90;;;;;;5097161;28;20030;-73
2021/01/21 12:07:33;;;;;;;3.90;1.45;;;9.40;99.90;;;;;;5096893;28;19908;-73
2021/01/21 12:09:59;;;;;;;;;;;9.40;99.90;;;;;;5097210;28;20031;-73
2021/01/21 12:12:25;;;;;;;3.05;1.00;;;9.50;99.90;;;;;;5096667;28;19953;-73
2021/01/21 12:14:51;;;;;;;2.08;1.15;;;9.40;99.90;;;;;;5095557;28;20044;-73
2021/01/21 12:17:16;;;;;;;;;;;9.60;99.90;;;;;;5095858;28;20111;-73
2021/01/21 12:19:43;;;;;;;;;;;9.70;99.90;;;;;;5097036;28;19971;-74
2021/01/21 12:22:09;;;;;;;;;;;9.90;99.90;;;;;;5097002;28;20398;-74
2021/01/21 12:24:35;;;;;;;;;;;9.90;99.90;;;;;;5096893;28;19904;-73
2021/01/21 12:27:00;;;;;;;;;;;10.10;99.90;;;;;;5097241;28;19904;-73
2021/01/21 12:29:26;;;;;;;;;;;10.20;99.90;;;;;;5097170;28;19904;-74
2021/01/21 12:31:52;;;;;;;;;;;10.20;99.90;;;;;;5097036;28;19972;-73
2021/01/21 12:34:17;;;;;;;;;;;10.30;99.90;;;;;;5096876;28;19908;-74
2021/01/21 12:36:43;;;;;;;;;;;10.30;99.90;;;;;;5096976;28;19904;-74
2021/01/21 12:39:09;;;;;;;;;;;10.40;99.90;;;;;;5096999;28;20456;-73
2021/01/21 12:41:34;;;;;;;;;;;10.50;99.90;;;;;;5096893;28;20391;-73
2021/01/21 12:44:00;;;;;;;;;;;10.70;99.90;;;;;;5097118;28;19904;-73
2021/01/21 12:46:28;;;;;;;;;;;10.70;99.90;;;;;;5095455;28;19904;-74
2021/01/21 12:48:54;;;;;;;;;;;10.80;99.90;;;;;;5095300;28;19916;-73
2021/01/21 12:51:20;;;;;;;;;;;10.80;99.90;;;;;;5096770;28;19904;-73
2021/01/21 12:53:45;;;;;;;;;;;11.00;99.90;;;;;;5096687;28;19912;-73
2021/01/21 12:56:11;;;;;;;;;;;11.00;99.90;;;;;;5098491;28;19947;-73
2021/01/21 12:58:37;;;;;;;;;;;11.10;99.90;;;;;;5099468;28;19904;-73
2021/01/21 13:01:02;;;;;;;;;;;11.20;99.90;;;;;;5100678;28;19914;-73
2021/01/21 13:03:28;;;;;;;;;;;11.20;99.90;;;;;;5100885;28;20295;-73
2021/01/21 13:05:54;;;;;;;;;;;11.20;99.90;;;;;;5100514;28;19904;-73
2021/01/21 13:08:19;;;;;;;;;;;11.20;99.90;;;;;;5100542;28;19925;-74
2021/01/21 13:10:45;;;;;;;;;;;11.20;99.90;;;;;;5100492;28;19948;-73
2021/01/21 13:13:13;;;;;;;;;;;11.10;99.90;;;;;;5100380;28;19904;-73
2021/01/21 13:15:38;;;;;;;;;;;10.80;99.90;;;;;;5100357;28;19911;-73
2021/01/21 13:18:04;;;;;;;;;;;11.00;99.90;;;;;;5100607;28;19904;-73
2021/01/21 13:20:30;;;;;;;;;;;11.00;99.90;;;;;;5100274;28;20877;-73
2021/01/21 13:22:55;;;;;;;;;;;10.70;99.90;;;;;;5100319;28;19950;-73
2021/01/21 13:25:21;;;;;;;;;;;10.70;99.90;;;;;;5100178;28;20007;-73
2021/01/21 13:27:48;;;;;;;;;;;10.70;99.90;;;;;;5100423;28;19935;-73
2021/01/21 13:30:15;;;;;;;;;;;10.80;99.90;;;;;;5100171;28;20368;-73